sensor_id;sensor_type;location;lat;lon;timestamp;P1;durP1;ratioP1;P2;durP2;ratioP2
20988;SDS011;10653;47.052;15.410;2023-04-25T00:00:25;7.70;;;7.00;;
20988;SDS011;10653;47.052;15.410;2023-04-25T00:02:51;8.70;;;7.17;;
20988;SDS011;10653;47.052;15.410;2023-04-25T00:05:18;8.70;;;7.17;;
20988;SDS011;10653;47.052;15.410;2023-04-25T00:07:44;8.53;;;7.70;;
20988;SDS011;10653;47.052;15.410;2023-04-25T00:10:11;8.20;;;7.50;;
20988;SDS011;10653;47.052;15.410;2023-04-25T00:12:37;8.10;;;7.40;;
20988;SDS011;10653;47.052;15.410;2023-04-25T00:23:59;8.93;;;8.13;;
20988;SDS011;10653;47.052;15.410;2023-04-25T00:26:26;9.20;;;8.40;;
20988;SDS011;10653;47.052;15.410;2023-04-25T00:28:52;8.00;;;7.30;;
20988;SDS011;10653;47.052;15.410;2023-04-25T00:31:18;9.47;;;8.40;;
20988;SDS011;10653;47.052;15.410;2023-04-25T00:33:44;8.03;;;7.33;;
20988;SDS011;10653;47.052;15.410;2023-04-25T00:36:10;8.80;;;7.50;;
20988;SDS011;10653;47.052;15.410;2023-04-25T00:38:37;8.10;;;7.30;;
20988;SDS011;10653;47.052;15.410;2023-04-25T00:41:04;9.60;;;8.70;;
20988;SDS011;10653;47.052;15.410;2023-04-25T00:43:30;8.57;;;7.83;;
20988;SDS011;10653;47.052;15.410;2023-04-25T00:45:58;9.47;;;8.57;;
20988;SDS011;10653;47.052;15.410;2023-04-25T00:48:25;9.10;;;8.20;;
20988;SDS011;10653;47.052;15.410;2023-04-25T00:50:52;8.33;;;7.63;;
20988;SDS011;10653;47.052;15.410;2023-04-25T00:53:19;8.50;;;7.70;;
20988;SDS011;10653;47.052;15.410;2023-04-25T00:55:45;9.60;;;8.60;;
20988;SDS011;10653;47.052;15.410;2023-04-25T00:58:11;11.23;;;9.23;;
20988;SDS011;10653;47.052;15.410;2023-04-25T01:00:37;11.57;;;9.67;;
20988;SDS011;10653;47.052;15.410;2023-04-25T01:03:03;10.83;;;9.80;;
20988;SDS011;10653;47.052;15.410;2023-04-25T01:05:29;12.10;;;9.97;;
20988;SDS011;10653;47.052;15.410;2023-04-25T01:07:55;13.20;;;11.90;;
20988;SDS011;10653;47.052;15.410;2023-04-25T01:10:21;12.87;;;11.67;;
20988;SDS011;10653;47.052;15.410;2023-04-25T01:12:47;14.17;;;12.77;;
20988;SDS011;10653;47.052;15.410;2023-04-25T01:15:13;12.90;;;11.60;;
20988;SDS011;10653;47.052;15.410;2023-04-25T01:17:39;12.90;;;11.70;;
20988;SDS011;10653;47.052;15.410;2023-04-25T01:20:06;13.40;;;12.10;;
20988;SDS011;10653;47.052;15.410;2023-04-25T01:22:34;12.53;;;11.40;;
20988;SDS011;10653;47.052;15.410;2023-04-25T01:25:00;13.70;;;11.87;;
20988;SDS011;10653;47.052;15.410;2023-04-25T01:27:27;12.00;;;10.80;;
20988;SDS011;10653;47.052;15.410;2023-04-25T01:29:53;13.83;;;12.03;;
20988;SDS011;10653;47.052;15.410;2023-04-25T01:32:19;12.57;;;11.27;;
20988;SDS011;10653;47.052;15.410;2023-04-25T01:34:46;13.30;;;12.10;;
20988;SDS011;10653;47.052;15.410;2023-04-25T01:37:12;14.73;;;11.00;;
20988;SDS011;10653;47.052;15.410;2023-04-25T01:39:38;12.40;;;11.20;;
20988;SDS011;10653;47.052;15.410;2023-04-25T01:42:05;12.90;;;11.73;;
20988;SDS011;10653;47.052;15.410;2023-04-25T01:44:31;13.13;;;11.90;;
20988;SDS011;10653;47.052;15.410;2023-04-25T01:46:57;14.63;;;13.27;;
20988;SDS011;10653;47.052;15.410;2023-04-25T01:49:23;13.87;;;12.47;;
20988;SDS011;10653;47.052;15.410;2023-04-25T01:51:49;14.60;;;13.17;;
20988;SDS011;10653;47.052;15.410;2023-04-25T01:54:15;14.03;;;12.73;;
20988;SDS011;10653;47.052;15.410;2023-04-25T01:56:41;14.47;;;13.03;;
20988;SDS011;10653;47.052;15.410;2023-04-25T01:59:07;16.50;;;14.80;;
20988;SDS011;10653;47.052;15.410;2023-04-25T02:01:33;17.43;;;15.57;;
20988;SDS011;10653;47.052;15.410;2023-04-25T02:03:59;17.30;;;15.60;;
20988;SDS011;10653;47.052;15.410;2023-04-25T02:06:25;35.83;;;16.43;;
20988;SDS011;10653;47.052;15.410;2023-04-25T02:08:51;50.93;;;18.77;;
20988;SDS011;10653;47.052;15.410;2023-04-25T02:11:17;16.93;;;15.23;;
20988;SDS011;10653;47.052;15.410;2023-04-25T02:13:43;17.10;;;15.40;;
20988;SDS011;10653;47.052;15.410;2023-04-25T02:16:09;24.90;;;16.03;;
20988;SDS011;10653;47.052;15.410;2023-04-25T02:18:35;16.90;;;14.93;;
20988;SDS011;10653;47.052;15.410;2023-04-25T02:21:02;23.53;;;15.50;;
20988;SDS011;10653;47.052;15.410;2023-04-25T02:23:28;27.57;;;16.20;;
20988;SDS011;10653;47.052;15.410;2023-04-25T02:25:55;21.20;;;16.77;;
20988;SDS011;10653;47.052;15.410;2023-04-25T02:28:23;31.43;;;16.07;;
20988;SDS011;10653;47.052;15.410;2023-04-25T02:30:49;25.37;;;15.27;;
20988;SDS011;10653;47.052;15.410;2023-04-25T02:33:15;49.87;;;15.20;;
20988;SDS011;10653;47.052;15.410;2023-04-25T02:35:42;58.30;;;18.27;;
20988;SDS011;10653;47.052;15.410;2023-04-25T02:38:08;17.40;;;15.50;;
20988;SDS011;10653;47.052;15.410;2023-04-25T02:40:34;28.40;;;15.60;;
20988;SDS011;10653;47.052;15.410;2023-04-25T02:43:00;33.03;;;14.13;;
20988;SDS011;10653;47.052;15.410;2023-04-25T02:45:26;30.93;;;14.90;;
20988;SDS011;10653;47.052;15.410;2023-04-25T02:47:52;22.97;;;12.60;;
20988;SDS011;10653;47.052;15.410;2023-04-25T02:50:19;20.60;;;12.20;;
20988;SDS011;10653;47.052;15.410;2023-04-25T02:52:45;18.20;;;11.77;;
20988;SDS011;10653;47.052;15.410;2023-04-25T02:55:12;20.20;;;13.50;;
20988;SDS011;10653;47.052;15.410;2023-04-25T02:57:38;36.83;;;14.20;;
20988;SDS011;10653;47.052;15.410;2023-04-25T03:00:04;27.67;;;13.60;;
20988;SDS011;10653;47.052;15.410;2023-04-25T03:02:30;22.43;;;14.57;;
20988;SDS011;10653;47.052;15.410;2023-04-25T03:04:56;26.93;;;15.40;;
20988;SDS011;10653;47.052;15.410;2023-04-25T03:07:23;20.40;;;14.73;;
20988;SDS011;10653;47.052;15.410;2023-04-25T03:09:49;20.13;;;13.93;;
20988;SDS011;10653;47.052;15.410;2023-04-25T03:12:15;21.63;;;12.60;;
20988;SDS011;10653;47.052;15.410;2023-04-25T03:14:41;20.20;;;14.07;;
20988;SDS011;10653;47.052;15.410;2023-04-25T03:17:07;32.63;;;15.43;;
20988;SDS011;10653;47.052;15.410;2023-04-25T03:19:33;15.43;;;12.30;;
20988;SDS011;10653;47.052;15.410;2023-04-25T03:21:59;92.23;;;19.80;;
20988;SDS011;10653;47.052;15.410;2023-04-25T03:24:25;32.93;;;15.70;;
20988;SDS011;10653;47.052;15.410;2023-04-25T03:26:52;50.37;;;16.80;;
20988;SDS011;10653;47.052;15.410;2023-04-25T03:29:18;29.53;;;14.40;;
20988;SDS011;10653;47.052;15.410;2023-04-25T03:31:44;32.63;;;13.57;;
20988;SDS011;10653;47.052;15.410;2023-04-25T03:34:10;37.67;;;15.47;;
20988;SDS011;10653;47.052;15.410;2023-04-25T03:36:36;64.70;;;15.00;;
20988;SDS011;10653;47.052;15.410;2023-04-25T03:39:02;40.97;;;17.07;;
20988;SDS011;10653;47.052;15.410;2023-04-25T03:41:28;31.33;;;18.50;;
20988;SDS011;10653;47.052;15.410;2023-04-25T03:43:54;20.50;;;15.67;;
20988;SDS011;10653;47.052;15.410;2023-04-25T03:46:20;34.67;;;17.43;;
20988;SDS011;10653;47.052;15.410;2023-04-25T03:48:46;23.20;;;15.97;;
20988;SDS011;10653;47.052;15.410;2023-04-25T03:51:12;26.20;;;17.33;;
20988;SDS011;10653;47.052;15.410;2023-04-25T03:53:38;25.00;;;16.33;;
20988;SDS011;10653;47.052;15.410;2023-04-25T03:56:04;23.47;;;15.40;;
20988;SDS011;10653;47.052;15.410;2023-04-25T03:58:31;19.03;;;14.80;;
20988;SDS011;10653;47.052;15.410;2023-04-25T04:00:57;17.80;;;14.60;;
20988;SDS011;10653;47.052;15.410;2023-04-25T04:03:23;23.47;;;14.93;;
20988;SDS011;10653;47.052;15.410;2023-04-25T04:05:49;17.70;;;15.50;;
20988;SDS011;10653;47.052;15.410;2023-04-25T04:08:15;19.20;;;15.60;;
20988;SDS011;10653;47.052;15.410;2023-04-25T04:10:41;28.50;;;16.50;;
20988;SDS011;10653;47.052;15.410;2023-04-25T04:13:07;16.60;;;13.77;;
20988;SDS011;10653;47.052;15.410;2023-04-25T04:15:33;14.87;;;12.70;;
20988;SDS011;10653;47.052;15.410;2023-04-25T04:17:59;17.60;;;11.87;;
20988;SDS011;10653;47.052;15.410;2023-04-25T04:20:29;12.83;;;11.40;;
20988;SDS011;10653;47.052;15.410;2023-04-25T04:22:55;16.17;;;12.50;;
20988;SDS011;10653;47.052;15.410;2023-04-25T04:25:21;16.77;;;12.83;;
20988;SDS011;10653;47.052;15.410;2023-04-25T04:27:47;17.00;;;12.40;;
20988;SDS011;10653;47.052;15.410;2023-04-25T04:30:13;16.17;;;11.67;;
20988;SDS011;10653;47.052;15.410;2023-04-25T04:32:40;16.40;;;11.30;;
20988;SDS011;10653;47.052;15.410;2023-04-25T04:35:06;14.20;;;10.60;;
20988;SDS011;10653;47.052;15.410;2023-04-25T04:37:33;13.00;;;11.17;;
20988;SDS011;10653;47.052;15.410;2023-04-25T04:40:00;15.33;;;11.67;;
20988;SDS011;10653;47.052;15.410;2023-04-25T04:42:30;12.87;;;10.50;;
20988;SDS011;10653;47.052;15.410;2023-04-25T04:44:56;12.07;;;10.57;;
20988;SDS011;10653;47.052;15.410;2023-04-25T04:47:23;14.77;;;11.40;;
20988;SDS011;10653;47.052;15.410;2023-04-25T04:49:50;14.87;;;11.60;;
20988;SDS011;10653;47.052;15.410;2023-04-25T04:52:16;10.70;;;9.60;;
20988;SDS011;10653;47.052;15.410;2023-04-25T04:54:42;10.33;;;8.70;;
20988;SDS011;10653;47.052;15.410;2023-04-25T04:57:08;6.97;;;6.30;;
20988;SDS011;10653;47.052;15.410;2023-04-25T04:59:34;10.53;;;7.70;;
20988;SDS011;10653;47.052;15.410;2023-04-25T05:02:01;9.27;;;6.80;;
20988;SDS011;10653;47.052;15.410;2023-04-25T05:04:27;8.83;;;6.70;;
20988;SDS011;10653;47.052;15.410;2023-04-25T05:06:53;6.37;;;5.83;;
20988;SDS011;10653;47.052;15.410;2023-04-25T05:09:19;7.73;;;6.93;;
20988;SDS011;10653;47.052;15.410;2023-04-25T05:11:45;9.70;;;7.13;;
20988;SDS011;10653;47.052;15.410;2023-04-25T05:14:11;10.97;;;7.47;;
20988;SDS011;10653;47.052;15.410;2023-04-25T05:16:37;7.53;;;6.80;;
20988;SDS011;10653;47.052;15.410;2023-04-25T05:19:03;9.47;;;8.40;;
20988;SDS011;10653;47.052;15.410;2023-04-25T05:21:29;9.73;;;8.73;;
20988;SDS011;10653;47.052;15.410;2023-04-25T05:23:56;8.80;;;7.70;;
20988;SDS011;10653;47.052;15.410;2023-04-25T05:26:22;9.37;;;7.90;;
20988;SDS011;10653;47.052;15.410;2023-04-25T05:28:48;10.20;;;9.20;;
20988;SDS011;10653;47.052;15.410;2023-04-25T05:31:16;11.07;;;8.40;;
20988;SDS011;10653;47.052;15.410;2023-04-25T05:33:42;9.60;;;8.60;;
20988;SDS011;10653;47.052;15.410;2023-04-25T05:36:08;8.23;;;7.43;;
20988;SDS011;10653;47.052;15.410;2023-04-25T05:38:34;7.70;;;7.00;;
20988;SDS011;10653;47.052;15.410;2023-04-25T05:41:00;7.00;;;6.17;;
20988;SDS011;10653;47.052;15.410;2023-04-25T05:43:26;10.00;;;6.07;;
20988;SDS011;10653;47.052;15.410;2023-04-25T05:45:52;10.57;;;7.20;;
20988;SDS011;10653;47.052;15.410;2023-04-25T05:48:18;8.40;;;7.60;;
20988;SDS011;10653;47.052;15.410;2023-04-25T05:50:44;9.33;;;6.83;;
20988;SDS011;10653;47.052;15.410;2023-04-25T05:53:10;12.13;;;7.83;;
20988;SDS011;10653;47.052;15.410;2023-04-25T05:55:36;6.53;;;5.93;;
20988;SDS011;10653;47.052;15.410;2023-04-25T05:58:02;8.43;;;6.40;;
20988;SDS011;10653;47.052;15.410;2023-04-25T06:00:28;7.80;;;7.10;;
20988;SDS011;10653;47.052;15.410;2023-04-25T06:02:54;7.67;;;6.87;;
20988;SDS011;10653;47.052;15.410;2023-04-25T06:05:20;7.67;;;6.87;;
20988;SDS011;10653;47.052;15.410;2023-04-25T06:07:46;7.53;;;6.67;;
20988;SDS011;10653;47.052;15.410;2023-04-25T06:10:12;7.47;;;6.33;;
20988;SDS011;10653;47.052;15.410;2023-04-25T06:12:38;8.07;;;7.07;;
20988;SDS011;10653;47.052;15.410;2023-04-25T06:15:05;7.13;;;6.50;;
20988;SDS011;10653;47.052;15.410;2023-04-25T06:17:32;10.20;;;6.30;;
20988;SDS011;10653;47.052;15.410;2023-04-25T06:19:58;7.70;;;7.00;;
20988;SDS011;10653;47.052;15.410;2023-04-25T06:22:24;7.03;;;6.33;;
20988;SDS011;10653;47.052;15.410;2023-04-25T06:24:50;9.97;;;8.97;;
20988;SDS011;10653;47.052;15.410;2023-04-25T06:27:17;8.80;;;7.90;;
20988;SDS011;10653;47.052;15.410;2023-04-25T06:29:43;11.10;;;9.93;;
20988;SDS011;10653;47.052;15.410;2023-04-25T06:32:09;11.87;;;10.50;;
20988;SDS011;10653;47.052;15.410;2023-04-25T06:34:35;10.97;;;9.87;;
20988;SDS011;10653;47.052;15.410;2023-04-25T06:37:01;9.67;;;8.83;;
20988;SDS011;10653;47.052;15.410;2023-04-25T06:39:27;12.03;;;9.87;;
20988;SDS011;10653;47.052;15.410;2023-04-25T06:41:53;11.00;;;9.77;;
20988;SDS011;10653;47.052;15.410;2023-04-25T06:44:19;15.57;;;13.00;;
20988;SDS011;10653;47.052;15.410;2023-04-25T06:46:48;15.53;;;13.93;;
20988;SDS011;10653;47.052;15.410;2023-04-25T06:49:14;19.70;;;16.93;;
20988;SDS011;10653;47.052;15.410;2023-04-25T06:51:40;19.47;;;17.43;;
20988;SDS011;10653;47.052;15.410;2023-04-25T06:54:06;18.43;;;16.43;;
20988;SDS011;10653;47.052;15.410;2023-04-25T06:56:32;18.33;;;15.97;;
20988;SDS011;10653;47.052;15.410;2023-04-25T06:58:58;18.80;;;16.27;;
20988;SDS011;10653;47.052;15.410;2023-04-25T07:01:25;18.60;;;16.27;;
20988;SDS011;10653;47.052;15.410;2023-04-25T07:03:51;16.13;;;13.70;;
20988;SDS011;10653;47.052;15.410;2023-04-25T07:06:17;16.03;;;14.37;;
20988;SDS011;10653;47.052;15.410;2023-04-25T07:08:43;13.73;;;11.90;;
20988;SDS011;10653;47.052;15.410;2023-04-25T07:11:09;13.30;;;11.80;;
20988;SDS011;10653;47.052;15.410;2023-04-25T07:13:35;14.73;;;12.63;;
20988;SDS011;10653;47.052;15.410;2023-04-25T07:16:01;14.00;;;12.60;;
20988;SDS011;10653;47.052;15.410;2023-04-25T07:18:28;17.63;;;13.20;;
20988;SDS011;10653;47.052;15.410;2023-04-25T07:20:54;17.77;;;14.03;;
20988;SDS011;10653;47.052;15.410;2023-04-25T07:23:20;14.10;;;11.50;;
20988;SDS011;10653;47.052;15.410;2023-04-25T07:25:46;13.83;;;12.43;;
20988;SDS011;10653;47.052;15.410;2023-04-25T07:28:12;15.50;;;12.23;;
20988;SDS011;10653;47.052;15.410;2023-04-25T07:30:38;13.57;;;10.87;;
20988;SDS011;10653;47.052;15.410;2023-04-25T07:33:04;12.77;;;10.30;;
20988;SDS011;10653;47.052;15.410;2023-04-25T07:35:30;10.40;;;9.40;;
20988;SDS011;10653;47.052;15.410;2023-04-25T07:37:56;10.40;;;9.20;;
20988;SDS011;10653;47.052;15.410;2023-04-25T07:40:22;9.37;;;8.50;;
20988;SDS011;10653;47.052;15.410;2023-04-25T07:42:48;9.97;;;8.90;;
20988;SDS011;10653;47.052;15.410;2023-04-25T07:45:14;8.47;;;7.67;;
20988;SDS011;10653;47.052;15.410;2023-04-25T07:47:40;9.37;;;7.10;;
20988;SDS011;10653;47.052;15.410;2023-04-25T07:50:06;7.20;;;6.50;;
20988;SDS011;10653;47.052;15.410;2023-04-25T07:52:32;11.93;;;6.00;;
20988;SDS011;10653;47.052;15.410;2023-04-25T07:54:58;6.97;;;5.80;;
20988;SDS011;10653;47.052;15.410;2023-04-25T07:57:25;7.20;;;4.70;;
20988;SDS011;10653;47.052;15.410;2023-04-25T07:59:51;5.63;;;4.13;;
20988;SDS011;10653;47.052;15.410;2023-04-25T08:02:17;5.20;;;3.60;;
20988;SDS011;10653;47.052;15.410;2023-04-25T08:04:43;3.70;;;3.40;;
20988;SDS011;10653;47.052;15.410;2023-04-25T08:07:09;4.20;;;3.80;;
20988;SDS011;10653;47.052;15.410;2023-04-25T08:09:35;4.07;;;2.30;;
20988;SDS011;10653;47.052;15.410;2023-04-25T08:12:02;2.53;;;2.30;;
20988;SDS011;10653;47.052;15.410;2023-04-25T08:14:28;3.10;;;2.17;;
20988;SDS011;10653;47.052;15.410;2023-04-25T08:16:56;2.80;;;2.30;;
20988;SDS011;10653;47.052;15.410;2023-04-25T08:19:22;2.00;;;1.80;;
20988;SDS011;10653;47.052;15.410;2023-04-25T08:21:48;1.27;;;1.17;;
20988;SDS011;10653;47.052;15.410;2023-04-25T08:24:16;1.30;;;1.10;;
20988;SDS011;10653;47.052;15.410;2023-04-25T08:26:42;1.23;;;1.13;;
20988;SDS011;10653;47.052;15.410;2023-04-25T08:29:08;3.93;;;1.33;;
20988;SDS011;10653;47.052;15.410;2023-04-25T08:31:34;4.10;;;0.90;;
20988;SDS011;10653;47.052;15.410;2023-04-25T08:34:00;2.50;;;1.10;;
20988;SDS011;10653;47.052;15.410;2023-04-25T08:36:26;2.43;;;0.93;;
20988;SDS011;10653;47.052;15.410;2023-04-25T08:38:53;2.73;;;1.30;;
20988;SDS011;10653;47.052;15.410;2023-04-25T08:41:19;2.07;;;1.30;;
20988;SDS011;10653;47.052;15.410;2023-04-25T08:43:47;1.00;;;0.90;;
20988;SDS011;10653;47.052;15.410;2023-04-25T08:46:14;3.87;;;0.97;;
20988;SDS011;10653;47.052;15.410;2023-04-25T08:48:42;1.10;;;1.00;;
20988;SDS011;10653;47.052;15.410;2023-04-25T08:51:08;1.53;;;0.90;;
20988;SDS011;10653;47.052;15.410;2023-04-25T08:53:35;0.93;;;0.90;;
20988;SDS011;10653;47.052;15.410;2023-04-25T08:56:01;3.43;;;0.90;;
20988;SDS011;10653;47.052;15.410;2023-04-25T08:58:28;1.33;;;1.00;;
20988;SDS011;10653;47.052;15.410;2023-04-25T09:00:54;1.40;;;1.10;;
20988;SDS011;10653;47.052;15.410;2023-04-25T09:03:20;1.50;;;1.13;;
20988;SDS011;10653;47.052;15.410;2023-04-25T09:05:46;2.97;;;1.27;;
20988;SDS011;10653;47.052;15.410;2023-04-25T09:08:12;4.10;;;1.10;;
20988;SDS011;10653;47.052;15.410;2023-04-25T09:10:38;2.33;;;0.77;;
20988;SDS011;10653;47.052;15.410;2023-04-25T09:13:09;1.47;;;1.20;;
20988;SDS011;10653;47.052;15.410;2023-04-25T09:16:09;0.70;;;0.70;;
20988;SDS011;10653;47.052;15.410;2023-04-25T09:18:29;1.00;;;0.90;;
20988;SDS011;10653;47.052;15.410;2023-04-25T09:20:57;1.43;;;1.10;;
20988;SDS011;10653;47.052;15.410;2023-04-25T09:23:23;3.00;;;1.37;;
20988;SDS011;10653;47.052;15.410;2023-04-25T09:25:50;1.57;;;1.10;;
20988;SDS011;10653;47.052;15.410;2023-04-25T09:28:22;2.23;;;1.00;;
20988;SDS011;10653;47.052;15.410;2023-04-25T09:30:52;1.90;;;0.87;;
20988;SDS011;10653;47.052;15.410;2023-04-25T09:33:20;1.40;;;0.70;;
20988;SDS011;10653;47.052;15.410;2023-04-25T09:35:52;0.70;;;0.70;;
20988;SDS011;10653;47.052;15.410;2023-04-25T09:38:20;1.77;;;0.80;;
20988;SDS011;10653;47.052;15.410;2023-04-25T09:40:46;3.60;;;1.10;;
20988;SDS011;10653;47.052;15.410;2023-04-25T09:43:24;2.30;;;1.20;;
20988;SDS011;10653;47.052;15.410;2023-04-25T09:45:51;1.27;;;1.17;;
20988;SDS011;10653;47.052;15.410;2023-04-25T09:48:19;1.20;;;1.10;;
20988;SDS011;10653;47.052;15.410;2023-04-25T09:53:30;0.83;;;0.83;;
20988;SDS011;10653;47.052;15.410;2023-04-25T09:55:57;1.73;;;1.30;;
20988;SDS011;10653;47.052;15.410;2023-04-25T09:58:25;2.00;;;1.03;;
20988;SDS011;10653;47.052;15.410;2023-04-25T10:00:51;4.00;;;0.90;;
20988;SDS011;10653;47.052;15.410;2023-04-25T10:03:18;2.03;;;0.83;;
20988;SDS011;10653;47.052;15.410;2023-04-25T10:05:46;0.93;;;0.73;;
20988;SDS011;10653;47.052;15.410;2023-04-25T10:08:14;3.83;;;0.90;;
20988;SDS011;10653;47.052;15.410;2023-04-25T10:10:41;2.03;;;1.10;;
20988;SDS011;10653;47.052;15.410;2023-04-25T10:13:08;1.00;;;0.80;;
20988;SDS011;10653;47.052;15.410;2023-04-25T10:15:34;1.67;;;0.97;;
20988;SDS011;10653;47.052;15.410;2023-04-25T10:18:03;2.40;;;1.00;;
20988;SDS011;10653;47.052;15.410;2023-04-25T10:20:31;1.70;;;1.00;;
20988;SDS011;10653;47.052;15.410;2023-04-25T10:22:59;1.73;;;1.00;;
20988;SDS011;10653;47.052;15.410;2023-04-25T10:25:29;1.80;;;0.97;;
20988;SDS011;10653;47.052;15.410;2023-04-25T10:27:56;1.97;;;1.20;;
20988;SDS011;10653;47.052;15.410;2023-04-25T10:30:22;2.03;;;1.20;;
20988;SDS011;10653;47.052;15.410;2023-04-25T10:32:48;1.47;;;0.83;;
20988;SDS011;10653;47.052;15.410;2023-04-25T10:35:19;1.07;;;0.83;;
20988;SDS011;10653;47.052;15.410;2023-04-25T10:38:05;0.90;;;0.70;;
20988;SDS011;10653;47.052;15.410;2023-04-25T10:40:31;0.90;;;0.80;;
20988;SDS011;10653;47.052;15.410;2023-04-25T10:45:51;1.67;;;0.80;;
20988;SDS011;10653;47.052;15.410;2023-04-25T10:48:27;1.03;;;0.93;;
20988;SDS011;10653;47.052;15.410;2023-04-25T10:51:09;1.57;;;1.03;;
20988;SDS011;10653;47.052;15.410;2023-04-25T10:53:35;1.80;;;0.70;;
20988;SDS011;10653;47.052;15.410;2023-04-25T10:56:11;0.80;;;0.80;;
20988;SDS011;10653;47.052;15.410;2023-04-25T10:58:41;1.30;;;0.90;;
20988;SDS011;10653;47.052;15.410;2023-04-25T11:01:07;1.27;;;0.90;;
20988;SDS011;10653;47.052;15.410;2023-04-25T11:03:37;1.17;;;1.10;;
20988;SDS011;10653;47.052;15.410;2023-04-25T11:06:04;1.03;;;0.93;;
20988;SDS011;10653;47.052;15.410;2023-04-25T11:08:36;1.40;;;1.10;;
20988;SDS011;10653;47.052;15.410;2023-04-25T11:11:04;1.20;;;1.10;;
20988;SDS011;10653;47.052;15.410;2023-04-25T11:13:30;2.10;;;1.33;;
20988;SDS011;10653;47.052;15.410;2023-04-25T11:15:56;1.67;;;0.80;;
20988;SDS011;10653;47.052;15.410;2023-04-25T11:18:25;6.20;;;4.90;;
20988;SDS011;10653;47.052;15.410;2023-04-25T11:20:51;2.13;;;1.93;;
20988;SDS011;10653;47.052;15.410;2023-04-25T11:23:18;1.23;;;1.13;;
20988;SDS011;10653;47.052;15.410;2023-04-25T11:25:43;1.30;;;1.03;;
20988;SDS011;10653;47.052;15.410;2023-04-25T11:28:10;1.23;;;0.83;;
20988;SDS011;10653;47.052;15.410;2023-04-25T11:30:36;2.23;;;1.10;;
20988;SDS011;10653;47.052;15.410;2023-04-25T11:33:02;1.83;;;0.93;;
20988;SDS011;10653;47.052;15.410;2023-04-25T11:35:28;1.53;;;0.90;;
20988;SDS011;10653;47.052;15.410;2023-04-25T11:37:54;1.10;;;0.60;;
20988;SDS011;10653;47.052;15.410;2023-04-25T11:40:20;2.43;;;1.10;;
20988;SDS011;10653;47.052;15.410;2023-04-25T11:42:46;2.50;;;1.00;;
20988;SDS011;10653;47.052;15.410;2023-04-25T11:45:12;0.70;;;0.70;;
20988;SDS011;10653;47.052;15.410;2023-04-25T11:47:39;2.17;;;1.00;;
20988;SDS011;10653;47.052;15.410;2023-04-25T11:50:06;1.13;;;1.03;;
20988;SDS011;10653;47.052;15.410;2023-04-25T11:52:38;3.27;;;1.03;;
20988;SDS011;10653;47.052;15.410;2023-04-25T11:55:06;2.57;;;0.90;;
20988;SDS011;10653;47.052;15.410;2023-04-25T11:57:32;1.43;;;0.70;;
20988;SDS011;10653;47.052;15.410;2023-04-25T12:00:08;2.00;;;1.43;;
20988;SDS011;10653;47.052;15.410;2023-04-25T12:02:36;2.97;;;1.00;;
20988;SDS011;10653;47.052;15.410;2023-04-25T12:05:02;0.70;;;0.70;;
20988;SDS011;10653;47.052;15.410;2023-04-25T12:07:31;3.60;;;0.83;;
20988;SDS011;10653;47.052;15.410;2023-04-25T12:09:57;1.10;;;0.70;;
20988;SDS011;10653;47.052;15.410;2023-04-25T12:12:27;3.07;;;0.90;;
20988;SDS011;10653;47.052;15.410;2023-04-25T12:14:53;1.50;;;1.10;;
20988;SDS011;10653;47.052;15.410;2023-04-25T12:17:20;1.30;;;0.77;;
20988;SDS011;10653;47.052;15.410;2023-04-25T12:19:46;2.40;;;0.93;;
20988;SDS011;10653;47.052;15.410;2023-04-25T12:22:19;1.07;;;0.90;;
20988;SDS011;10653;47.052;15.410;2023-04-25T12:24:46;1.70;;;1.00;;
20988;SDS011;10653;47.052;15.410;2023-04-25T12:27:13;1.43;;;1.07;;
20988;SDS011;10653;47.052;15.410;2023-04-25T12:29:49;1.70;;;0.90;;
20988;SDS011;10653;47.052;15.410;2023-04-25T12:32:16;2.73;;;1.13;;
20988;SDS011;10653;47.052;15.410;2023-04-25T12:34:43;6.00;;;1.10;;
20988;SDS011;10653;47.052;15.410;2023-04-25T12:37:09;1.50;;;0.97;;
20988;SDS011;10653;47.052;15.410;2023-04-25T12:39:35;1.87;;;0.90;;
20988;SDS011;10653;47.052;15.410;2023-04-25T12:42:01;1.13;;;0.80;;
20988;SDS011;10653;47.052;15.410;2023-04-25T12:44:28;2.30;;;1.70;;
20988;SDS011;10653;47.052;15.410;2023-04-25T12:46:54;2.00;;;1.10;;
20988;SDS011;10653;47.052;15.410;2023-04-25T12:49:20;1.67;;;0.90;;
20988;SDS011;10653;47.052;15.410;2023-04-25T12:51:47;4.80;;;0.90;;
20988;SDS011;10653;47.052;15.410;2023-04-25T12:54:13;1.33;;;0.77;;
20988;SDS011;10653;47.052;15.410;2023-04-25T12:56:39;1.90;;;0.70;;
20988;SDS011;10653;47.052;15.410;2023-04-25T12:59:06;0.83;;;0.70;;
20988;SDS011;10653;47.052;15.410;2023-04-25T13:01:32;2.37;;;1.00;;
20988;SDS011;10653;47.052;15.410;2023-04-25T13:03:58;1.70;;;0.80;;
20988;SDS011;10653;47.052;15.410;2023-04-25T13:06:25;1.50;;;0.83;;
20988;SDS011;10653;47.052;15.410;2023-04-25T13:08:51;1.87;;;1.10;;
20988;SDS011;10653;47.052;15.410;2023-04-25T13:11:17;1.03;;;0.80;;
20988;SDS011;10653;47.052;15.410;2023-04-25T13:13:43;1.53;;;0.70;;
20988;SDS011;10653;47.052;15.410;2023-04-25T13:16:10;1.03;;;0.73;;
20988;SDS011;10653;47.052;15.410;2023-04-25T13:18:38;1.90;;;1.40;;
20988;SDS011;10653;47.052;15.410;2023-04-25T13:21:04;4.53;;;1.00;;
20988;SDS011;10653;47.052;15.410;2023-04-25T13:23:30;1.70;;;1.00;;
20988;SDS011;10653;47.052;15.410;2023-04-25T13:25:56;1.33;;;1.00;;
20988;SDS011;10653;47.052;15.410;2023-04-25T13:28:23;1.60;;;1.20;;
20988;SDS011;10653;47.052;15.410;2023-04-25T13:30:50;3.03;;;1.00;;
20988;SDS011;10653;47.052;15.410;2023-04-25T13:33:16;3.63;;;1.67;;
20988;SDS011;10653;47.052;15.410;2023-04-25T13:35:42;0.67;;;0.67;;
20988;SDS011;10653;47.052;15.410;2023-04-25T13:38:11;1.77;;;0.87;;
20988;SDS011;10653;47.052;15.410;2023-04-25T13:40:38;1.77;;;0.73;;
20988;SDS011;10653;47.052;15.410;2023-04-25T13:43:04;1.53;;;0.80;;
20988;SDS011;10653;47.052;15.410;2023-04-25T13:45:31;1.20;;;0.87;;
20988;SDS011;10653;47.052;15.410;2023-04-25T13:47:57;2.60;;;1.00;;
20988;SDS011;10653;47.052;15.410;2023-04-25T13:50:23;1.37;;;0.87;;
20988;SDS011;10653;47.052;15.410;2023-04-25T13:52:50;0.93;;;0.73;;
20988;SDS011;10653;47.052;15.410;2023-04-25T13:55:16;1.10;;;0.70;;
20988;SDS011;10653;47.052;15.410;2023-04-25T13:57:42;0.80;;;0.70;;
20988;SDS011;10653;47.052;15.410;2023-04-25T14:00:08;0.87;;;0.80;;
20988;SDS011;10653;47.052;15.410;2023-04-25T14:02:35;1.73;;;0.93;;
20988;SDS011;10653;47.052;15.410;2023-04-25T14:05:01;1.03;;;0.80;;
20988;SDS011;10653;47.052;15.410;2023-04-25T14:07:28;1.20;;;0.60;;
20988;SDS011;10653;47.052;15.410;2023-04-25T14:09:55;1.93;;;0.77;;
20988;SDS011;10653;47.052;15.410;2023-04-25T14:12:22;1.97;;;0.90;;
20988;SDS011;10653;47.052;15.410;2023-04-25T14:14:48;0.80;;;0.60;;
20988;SDS011;10653;47.052;15.410;2023-04-25T14:17:14;2.30;;;1.07;;
20988;SDS011;10653;47.052;15.410;2023-04-25T14:19:40;1.27;;;0.73;;
20988;SDS011;10653;47.052;15.410;2023-04-25T14:22:10;3.90;;;1.10;;
20988;SDS011;10653;47.052;15.410;2023-04-25T14:24:36;1.80;;;1.00;;
20988;SDS011;10653;47.052;15.410;2023-04-25T14:27:03;0.83;;;0.77;;
20988;SDS011;10653;47.052;15.410;2023-04-25T14:29:29;0.93;;;0.70;;
20988;SDS011;10653;47.052;15.410;2023-04-25T14:31:55;2.30;;;0.80;;
20988;SDS011;10653;47.052;15.410;2023-04-25T14:34:22;1.80;;;0.83;;
20988;SDS011;10653;47.052;15.410;2023-04-25T14:36:48;1.83;;;0.80;;